Time;durP1;ratioP1;P1;durP2;ratioP2;P2;SDS_P1;SDS_P2;PMS_P1;PMS_P2;Temp;Humidity;BMP_temperature;BMP_pressure;BME280_temperature;BME280_humidity;BME280_pressure;Samples;Min_cycle;Max_cycle;Signal;HPM_P1;HPM_P2
2023/12/17 00:00:20;;;;;;;13.73;7.07;;;;;;;;;;702275;28;2272;-72
2023/12/17 00:00:40;;;;;;;14.27;7.28;;;;;;;;;;699719;28;4257;-71
2023/12/17 00:01:01;;;;;;;16.40;7.33;;;;;;;;;;699079;28;1234;-70
2023/12/17 00:01:22;;;;;;;13.48;7.38;;;;;;;;;;697131;28;3437;-73
2023/12/17 00:01:42;;;;;;;15.35;7.40;;;;;;;;;;701007;28;1147;-70
2023/12/17 00:02:03;;;;;;;16.93;7.33;;;;;;;;;;701579;28;899;-71
2023/12/17 00:02:23;;;;;;;16.15;7.30;;;;;;;;;;699832;28;2264;-71
2023/12/17 00:02:43;;;;;;;16.30;7.30;;;;;;;;;;703368;28;978;-72
2023/12/17 00:03:03;;;;;;;15.50;7.10;;;;;;;;;;703291;28;1069;-72
2023/12/17 00:03:25;;;;;;;15.13;7.10;;;;;;;;;;701698;28;2217;-71
2023/12/17 00:03:45;;;;;;;16.65;7.18;;;;;;;;;;701008;28;4254;-71
2023/12/17 00:04:05;;;;;;;13.00;6.80;;;;;;;;;;703104;28;761;-72
2023/12/17 00:04:26;;;;;;;11.83;7.00;;;;;;;;;;701019;28;1652;-70
2023/12/17 00:04:46;;;;;;;14.50;7.20;;;;;;;;;;703594;28;1281;-73
2023/12/17 00:05:07;;;;;;;15.30;6.75;;;;;;;;;;704185;28;918;-70
2023/12/17 00:05:28;;;;;;;14.27;6.70;;;;;;;;;;699259;28;1803;-72
2023/12/17 00:05:49;;;;;;;13.95;6.93;;;;;;;;;;698274;28;1328;-71
2023/12/17 00:06:10;;;;;;;12.63;6.60;;;;;;;;;;698201;28;2845;-70
2023/12/17 00:06:34;;;;;;;13.02;6.65;;;;;;;;;;697228;28;1188;-72
2023/12/17 00:06:55;;;;;;;13.52;7.10;;;;;;;;;;698106;28;4430;-71
2023/12/17 00:07:17;;;;;;;14.25;7.63;;;;;;;;;;697027;28;2452;-71
2023/12/17 00:07:38;;;;;;;14.20;7.25;;;;;;;;;;699573;28;1326;-71
2023/12/17 00:07:59;;;;;;;13.30;7.00;;;;;;;;;;699041;28;1369;-70
2023/12/17 00:08:21;;;;;;;13.70;6.90;;;;;;;;;;697535;28;1000;-70
2023/12/17 00:08:45;;;;;;;14.27;6.85;;;;;;;;;;695012;28;1509;-72
2023/12/17 00:09:06;;;;;;;13.65;7.20;;;;;;;;;;693170;28;1275;-71
2023/12/17 00:09:27;;;;;;;13.00;6.50;;;;;;;;;;692557;28;1559;-71
2023/12/17 00:09:47;;;;;;;13.75;6.60;;;;;;;;;;695041;28;4318;-71
2023/12/17 00:10:08;;;;;;;14.03;7.07;;;;;;;;;;699404;28;860;-71
2023/12/17 00:10:29;;;;;;;13.77;6.63;;;;;;;;;;700523;28;1520;-71
2023/12/17 00:10:49;;;;;;;15.33;7.10;;;;;;;;;;701395;28;806;-71
2023/12/17 00:11:09;;;;;;;14.23;7.30;;;;;;;;;;700625;28;1979;-71
2023/12/17 00:11:30;;;;;;;14.47;6.90;;;;;;;;;;695585;28;1759;-70
2023/12/17 00:11:50;;;;;;;14.33;6.60;;;;;;;;;;697024;28;1208;-71
2023/12/17 00:12:10;;;;;;;13.73;6.65;;;;;;;;;;695072;28;1459;-70
2023/12/17 00:12:34;;;;;;;14.80;6.73;;;;;;;;;;692752;28;1583;-71
2023/12/17 00:12:54;;;;;;;12.63;6.63;;;;;;;;;;695946;28;5042;-70
2023/12/17 00:13:14;;;;;;;13.32;6.47;;;;;;;;;;698462;28;1430;-71
2023/12/17 00:13:35;;;;;;;15.93;7.27;;;;;;;;;;697240;28;2214;-71
2023/12/17 00:13:56;;;;;;;14.15;6.95;;;;;;;;;;698714;28;1310;-70
2023/12/17 00:14:16;;;;;;;13.17;7.10;;;;;;;;;;693017;28;1714;-69
2023/12/17 00:14:36;;;;;;;15.27;6.83;;;;;;;;;;694421;28;1358;-70
2023/12/17 00:14:57;;;;;;;15.57;7.00;;;;;;;;;;692417;28;1189;-71
2023/12/17 00:15:17;;;;;;;14.15;7.07;;;;;;;;;;691791;28;1854;-70
2023/12/17 00:15:37;;;;;;;14.23;7.40;;;;;;;;;;690475;28;856;-71
2023/12/17 00:15:57;;;;;;;14.03;7.17;;;;;;;;;;692685;28;4358;-71
2023/12/17 00:16:18;;;;;;;15.38;7.22;;;;;;;;;;696641;28;1498;-72
2023/12/17 00:16:38;;;;;;;14.60;7.77;;;;;;;;;;693720;28;1252;-70
2023/12/17 00:16:58;;;;;;;14.23;7.32;;;;;;;;;;696783;28;908;-70
2023/12/17 00:17:20;;;;;;;14.27;7.00;;;;;;;;;;697221;28;1816;-71
2023/12/17 00:17:40;;;;;;;13.65;6.80;;;;;;;;;;701054;28;911;-71
2023/12/17 00:18:01;;;;;;;15.37;7.10;;;;;;;;;;701398;28;1325;-70
2023/12/17 00:18:22;;;;;;;15.77;7.15;;;;;;;;;;699454;28;1180;-72
2023/12/17 00:18:42;;;;;;;15.07;6.90;;;;;;;;;;700635;28;4261;-71
2023/12/17 00:19:02;;;;;;;14.95;6.70;;;;;;;;;;702675;28;804;-72
2023/12/17 00:19:23;;;;;;;14.27;7.03;;;;;;;;;;699173;28;1553;-70
2023/12/17 00:19:43;;;;;;;15.52;7.53;;;;;;;;;;698607;28;1339;-72
2023/12/17 00:20:04;;;;;;;15.63;7.63;;;;;;;;;;693113;28;1322;-72
2023/12/17 00:20:24;;;;;;;14.68;6.97;;;;;;;;;;691197;28;1451;-70
2023/12/17 00:20:44;;;;;;;15.13;8.00;;;;;;;;;;694562;28;873;-72
2023/12/17 00:21:05;;;;;;;16.50;7.70;;;;;;;;;;696036;28;856;-71
2023/12/17 00:21:25;;;;;;;15.63;7.38;;;;;;;;;;696581;28;2115;-71
2023/12/17 00:21:45;;;;;;;15.23;6.87;;;;;;;;;;698064;28;4208;-71
2023/12/17 00:22:05;;;;;;;15.10;6.70;;;;;;;;;;701216;28;931;-71
2023/12/17 00:22:26;;;;;;;12.80;6.63;;;;;;;;;;697051;28;1697;-70
2023/12/17 00:22:46;;;;;;;12.60;6.53;;;;;;;;;;698553;28;1355;-72
2023/12/17 00:23:06;;;;;;;12.73;7.37;;;;;;;;;;695897;28;1806;-71
2023/12/17 00:23:26;;;;;;;13.30;6.88;;;;;;;;;;696691;28;1832;-72
2023/12/17 00:23:47;;;;;;;12.27;6.60;;;;;;;;;;695942;28;1341;-70
2023/12/17 00:24:07;;;;;;;12.57;6.83;;;;;;;;;;698532;28;5756;-70
2023/12/17 00:24:27;;;;;;;14.63;7.15;;;;;;;;;;695950;28;1663;-70
2023/12/17 00:24:48;;;;;;;15.67;7.40;;;;;;;;;;697387;28;4278;-72
2023/12/17 00:25:08;;;;;;;14.03;6.80;;;;;;;;;;698542;28;868;-72
2023/12/17 00:25:28;;;;;;;14.77;6.78;;;;;;;;;;694556;28;1749;-71
2023/12/17 00:25:49;;;;;;;12.73;6.70;;;;;;;;;;697097;28;879;-72
2023/12/17 00:26:09;;;;;;;13.82;7.30;;;;;;;;;;696775;28;1368;-71
2023/12/17 00:26:29;;;;;;;14.03;7.50;;;;;;;;;;697286;28;1811;-70
2023/12/17 00:26:50;;;;;;;13.07;7.37;;;;;;;;;;699465;28;750;-71
2023/12/17 00:27:14;;;;;;;14.00;7.05;;;;;;;;;;698587;28;1156;-72
2023/12/17 00:27:34;;;;;;;17.98;8.00;;;;;;;;;;697006;28;1918;-72
2023/12/17 00:27:55;;;;;;;16.42;8.40;;;;;;;;;;698736;28;4330;-70
2023/12/17 00:28:15;;;;;;;14.00;7.53;;;;;;;;;;698566;28;900;-71
2023/12/17 00:28:35;;;;;;;14.00;7.50;;;;;;;;;;697469;28;1032;-71
2023/12/17 00:28:55;;;;;;;14.05;7.30;;;;;;;;;;698065;28;1214;-71
2023/12/17 00:29:16;;;;;;;13.93;7.27;;;;;;;;;;701556;28;939;-70
2023/12/17 00:29:36;;;;;;;16.13;7.50;;;;;;;;;;698996;28;1135;-72
2023/12/17 00:29:56;;;;;;;16.63;7.40;;;;;;;;;;700832;28;967;-72
2023/12/17 00:30:16;;;;;;;14.98;7.07;;;;;;;;;;698176;28;1371;-72
2023/12/17 00:30:37;;;;;;;14.60;7.07;;;;;;;;;;694661;28;1663;-70
2023/12/17 00:30:57;;;;;;;14.23;7.50;;;;;;;;;;697442;28;4357;-70
2023/12/17 00:31:17;;;;;;;14.30;7.57;;;;;;;;;;697620;28;1008;-72
2023/12/17 00:31:37;;;;;;;13.27;7.30;;;;;;;;;;699831;28;943;-70
2023/12/17 00:31:58;;;;;;;14.80;7.20;;;;;;;;;;698876;28;801;-71
2023/12/17 00:32:18;;;;;;;16.02;7.30;;;;;;;;;;699711;28;994;-71
2023/12/17 00:32:38;;;;;;;17.07;7.80;;;;;;;;;;704193;28;955;-71
2023/12/17 00:32:59;;;;;;;16.23;8.13;;;;;;;;;;703541;28;946;-70
2023/12/17 00:33:19;;;;;;;15.05;7.90;;;;;;;;;;700463;28;2495;-71
2023/12/17 00:33:39;;;;;;;14.63;7.37;;;;;;;;;;700946;28;4374;-71
2023/12/17 00:34:00;;;;;;;15.70;7.60;;;;;;;;;;700923;28;959;-72
2023/12/17 00:34:20;;;;;;;13.07;7.30;;;;;;;;;;702635;28;2082;-70
2023/12/17 00:34:40;;;;;;;13.57;7.13;;;;;;;;;;703873;28;891;-70
2023/12/17 00:35:01;;;;;;;13.57;6.90;;;;;;;;;;703213;28;1229;-71
2023/12/17 00:35:21;;;;;;;13.80;6.90;;;;;;;;;;700239;28;2225;-72
2023/12/17 00:35:41;;;;;;;16.38;7.07;;;;;;;;;;701111;28;1188;-70
2023/12/17 00:36:02;;;;;;;17.77;7.30;;;;;;;;;;701085;28;781;-72
2023/12/17 00:36:22;;;;;;;15.00;7.17;;;;;;;;;;699870;28;1689;-71
2023/12/17 00:36:42;;;;;;;14.82;7.22;;;;;;;;;;699512;28;4224;-71
2023/12/17 00:37:03;;;;;;;15.80;7.33;;;;;;;;;;697915;28;1384;-71
2023/12/17 00:37:23;;;;;;;14.60;7.37;;;;;;;;;;698843;28;998;-71
2023/12/17 00:37:43;;;;;;;13.82;7.60;;;;;;;;;;698169;28;988;-70
2023/12/17 00:38:03;;;;;;;13.27;6.90;;;;;;;;;;698393;28;952;-70
2023/12/17 00:38:24;;;;;;;13.90;7.13;;;;;;;;;;697040;28;1759;-70
2023/12/17 00:38:44;;;;;;;11.45;6.88;;;;;;;;;;695497;28;1242;-72
2023/12/17 00:39:04;;;;;;;13.00;6.53;;;;;;;;;;698792;28;1076;-71
2023/12/17 00:39:25;;;;;;;14.07;7.17;;;;;;;;;;698244;28;1712;-72
2023/12/17 00:39:45;;;;;;;13.77;7.27;;;;;;;;;;698541;28;4702;-71
2023/12/17 00:40:06;;;;;;;14.33;7.73;;;;;;;;;;700364;28;710;-70
2023/12/17 00:40:27;;;;;;;14.85;7.47;;;;;;;;;;698633;28;1704;-71
2023/12/17 00:40:47;;;;;;;16.30;7.67;;;;;;;;;;698989;28;1051;-72
2023/12/17 00:41:07;;;;;;;16.87;7.87;;;;;;;;;;699021;28;1235;-70
2023/12/17 00:41:27;;;;;;;14.30;7.87;;;;;;;;;;697543;28;2199;-71
2023/12/17 00:41:48;;;;;;;14.20;7.68;;;;;;;;;;697759;28;1460;-72
2023/12/17 00:42:08;;;;;;;13.37;7.57;;;;;;;;;;701514;28;931;-71
2023/12/17 00:42:28;;;;;;;13.10;7.10;;;;;;;;;;699581;28;1838;-71
2023/12/17 00:42:48;;;;;;;12.02;6.78;;;;;;;;;;700551;28;4216;-71
2023/12/17 00:43:09;;;;;;;14.10;7.00;;;;;;;;;;701345;28;907;-71
2023/12/17 00:43:29;;;;;;;14.90;7.47;;;;;;;;;;697183;28;1893;-71
2023/12/17 00:43:49;;;;;;;12.77;7.18;;;;;;;;;;698549;28;1191;-71
2023/12/17 00:44:10;;;;;;;13.97;7.00;;;;;;;;;;698139;28;1010;-72
2023/12/17 00:44:30;;;;;;;14.02;7.18;;;;;;;;;;699487;28;2331;-70
2023/12/17 00:44:50;;;;;;;15.17;7.27;;;;;;;;;;701454;28;919;-71
2023/12/17 00:45:10;;;;;;;15.43;7.40;;;;;;;;;;698694;28;912;-71
2023/12/17 00:45:31;;;;;;;16.40;7.60;;;;;;;;;;696766;28;1883;-71
2023/12/17 00:45:51;;;;;;;17.52;8.35;;;;;;;;;;700727;28;4244;-71
2023/12/17 00:46:11;;;;;;;17.23;8.17;;;;;;;;;;701617;28;844;-71
2023/12/17 00:46:32;;;;;;;15.33;7.83;;;;;;;;;;700102;28;1509;-71
2023/12/17 00:46:52;;;;;;;15.73;7.70;;;;;;;;;;698148;28;931;-73
2023/12/17 00:47:12;;;;;;;14.00;7.50;;;;;;;;;;701548;28;817;-71
2023/12/17 00:47:33;;;;;;;13.25;7.57;;;;;;;;;;698048;28;1422;-71
2023/12/17 00:47:53;;;;;;;13.47;7.67;;;;;;;;;;701460;28;853;-71
2023/12/17 00:48:13;;;;;;;15.03;7.80;;;;;;;;;;701077;28;967;-70
2023/12/17 00:48:34;;;;;;;15.27;7.53;;;;;;;;;;700901;28;1792;-71
2023/12/17 00:48:54;;;;;;;13.83;7.30;;;;;;;;;;705787;27;4439;-71
2023/12/17 00:49:14;;;;;;;14.67;7.77;;;;;;;;;;707164;28;1041;-71
2023/12/17 00:49:34;;;;;;;13.93;8.07;;;;;;;;;;701319;28;1868;-71
2023/12/17 00:49:55;;;;;;;14.33;7.37;;;;;;;;;;701161;28;1353;-71
2023/12/17 00:50:15;;;;;;;14.10;7.83;;;;;;;;;;698471;28;1430;-72
2023/12/17 00:50:35;;;;;;;11.65;7.28;;;;;;;;;;696170;28;1756;-71
2023/12/17 00:50:55;;;;;;;13.63;7.30;;;;;;;;;;698005;28;1007;-71
2023/12/17 00:51:16;;;;;;;17.27;7.83;;;;;;;;;;698568;28;1083;-71
2023/12/17 00:51:36;;;;;;;13.43;7.43;;;;;;;;;;699640;28;1455;-70
2023/12/17 00:51:56;;;;;;;16.67;7.97;;;;;;;;;;700324;28;4224;-71
2023/12/17 00:52:16;;;;;;;16.50;7.73;;;;;;;;;;701545;28;801;-71
2023/12/17 00:52:37;;;;;;;13.75;7.55;;;;;;;;;;694142;28;1888;-71
2023/12/17 00:52:57;;;;;;;12.80;7.43;;;;;;;;;;695527;28;869;-71
2023/12/17 00:53:17;;;;;;;14.90;7.73;;;;;;;;;;695918;28;1452;-71
2023/12/17 00:53:38;;;;;;;14.50;7.27;;;;;;;;;;694766;28;1634;-71
2023/12/17 00:53:58;;;;;;;11.70;7.00;;;;;;;;;;697857;28;880;-70
2023/12/17 00:54:18;;;;;;;12.90;7.50;;;;;;;;;;697699;28;1175;-72
2023/12/17 00:54:38;;;;;;;12.53;7.00;;;;;;;;;;702389;28;1220;-72
2023/12/17 00:54:59;;;;;;;13.90;7.07;;;;;;;;;;700640;28;4423;-72
2023/12/17 00:55:19;;;;;;;12.70;7.57;;;;;;;;;;700347;28;959;-72
2023/12/17 00:55:39;;;;;;;13.93;7.80;;;;;;;;;;696973;28;1741;-71
2023/12/17 00:56:00;;;;;;;16.87;7.63;;;;;;;;;;695083;28;1135;-71
2023/12/17 00:56:20;;;;;;;16.93;7.97;;;;;;;;;;694900;28;2352;-70
2023/12/17 00:56:40;;;;;;;14.98;7.72;;;;;;;;;;695160;28;1365;-73
2023/12/17 00:57:00;;;;;;;12.73;7.90;;;;;;;;;;697631;28;855;-71
2023/12/17 00:57:21;;;;;;;13.93;8.07;;;;;;;;;;700281;28;1597;-71
2023/12/17 00:57:41;;;;;;;13.90;7.30;;;;;;;;;;702469;28;4523;-71
2023/12/17 00:58:01;;;;;;;14.07;8.00;;;;;;;;;;700376;28;1122;-70
2023/12/17 00:58:21;;;;;;;13.70;7.83;;;;;;;;;;699994;28;2457;-72
2023/12/17 00:58:41;;;;;;;13.73;7.83;;;;;;;;;;700924;28;899;-69
2023/12/17 00:59:02;;;;;;;14.45;7.45;;;;;;;;;;698405;28;1112;-68
2023/12/17 00:59:22;;;;;;;13.33;7.40;;;;;;;;;;696774;28;1787;-72
2023/12/17 00:59:42;;;;;;;13.00;7.80;;;;;;;;;;698639;28;903;-71
2023/12/17 01:00:03;;;;;;;12.33;7.87;;;;;;;;;;698774;28;836;-72
2023/12/17 01:00:23;;;;;;;15.00;7.95;;;;;;;;;;699196;28;957;-72
2023/12/17 01:00:44;;;;;;;14.73;7.85;;;;;;;;;;698592;28;4256;-71
2023/12/17 01:01:04;;;;;;;13.90;7.43;;;;;;;;;;704087;28;1167;-70
2023/12/17 01:01:25;;;;;;;14.67;7.70;;;;;;;;;;702332;28;1747;-72
2023/12/17 01:01:45;;;;;;;14.57;7.93;;;;;;;;;;704026;28;873;-71
2023/12/17 01:02:05;;;;;;;15.10;7.43;;;;;;;;;;703561;28;904;-72
2023/12/17 01:02:26;;;;;;;16.15;7.55;;;;;;;;;;702020;28;3189;-71
2023/12/17 01:02:46;;;;;;;15.37;7.70;;;;;;;;;;703749;28;1234;-72
2023/12/17 01:03:06;;;;;;;14.10;7.47;;;;;;;;;;703819;28;840;-72
2023/12/17 01:03:26;;;;;;;14.60;7.55;;;;;;;;;;701904;28;982;-69
2023/12/17 01:03:47;;;;;;;14.33;7.27;;;;;;;;;;703644;28;4427;-72
2023/12/17 01:04:07;;;;;;;15.73;7.67;;;;;;;;;;704114;28;853;-70
2023/12/17 01:04:27;;;;;;;17.67;7.90;;;;;;;;;;701579;28;2313;-70
2023/12/17 01:04:47;;;;;;;13.97;7.53;;;;;;;;;;707068;28;826;-69
2023/12/17 01:05:08;;;;;;;13.77;7.80;;;;;;;;;;706976;28;879;-71
2023/12/17 01:05:28;;;;;;;12.55;7.50;;;;;;;;;;704755;27;1650;-73
2023/12/17 01:05:48;;;;;;;14.93;7.37;;;;;;;;;;702406;28;962;-69
2023/12/17 01:06:08;;;;;;;16.67;7.03;;;;;;;;;;704047;28;919;-70
2023/12/17 01:06:29;;;;;;;15.52;7.53;;;;;;;;;;701231;28;1750;-70
2023/12/17 01:06:49;;;;;;;16.17;8.20;;;;;;;;;;703162;28;4218;-68
2023/12/17 01:07:09;;;;;;;13.73;7.37;;;;;;;;;;704371;28;868;-71
2023/12/17 01:07:29;;;;;;;14.80;7.30;;;;;;;;;;699736;28;1504;-71
2023/12/17 01:07:50;;;;;;;14.50;7.47;;;;;;;;;;703701;28;1061;-72
2023/12/17 01:08:10;;;;;;;14.73;8.27;;;;;;;;;;698363;28;1435;-70
2023/12/17 01:08:30;;;;;;;15.55;7.93;;;;;;;;;;697189;28;2145;-70
2023/12/17 01:08:50;;;;;;;13.73;8.07;;;;;;;;;;698051;28;777;-71
2023/12/17 01:09:11;;;;;;;14.10;7.90;;;;;;;;;;698121;28;904;-71
2023/12/17 01:09:31;;;;;;;13.43;7.50;;;;;;;;;;693717;28;1992;-72
2023/12/17 01:09:51;;;;;;;12.77;7.77;;;;;;;;;;694966;28;4287;-72
2023/12/17 01:10:12;;;;;;;13.63;7.67;;;;;;;;;;698427;28;1350;-69
2023/12/17 01:10:32;;;;;;;15.23;7.75;;;;;;;;;;696859;28;2341;-71
2023/12/17 01:10:52;;;;;;;15.13;8.27;;;;;;;;;;698146;28;821;-70
2023/12/17 01:11:13;;;;;;;15.10;8.40;;;;;;;;;;695649;28;2374;-72
2023/12/17 01:11:33;;;;;;;15.68;7.78;;;;;;;;;;700005;28;1448;-71
2023/12/17 01:11:54;;;;;;;13.70;8.00;;;;;;;;;;700650;28;1324;-69
2023/12/17 01:12:15;;;;;;;15.05;8.07;;;;;;;;;;704285;28;1010;-72
2023/12/17 01:12:35;;;;;;;16.60;8.30;;;;;;;;;;695756;28;1151;-72
2023/12/17 01:12:55;;;;;;;17.17;8.53;;;;;;;;;;697819;28;4230;-71
2023/12/17 01:13:16;;;;;;;13.88;8.25;;;;;;;;;;700781;28;1129;-70
2023/12/17 01:13:36;;;;;;;15.23;8.30;;;;;;;;;;699410;28;1755;-70
2023/12/17 01:13:56;;;;;;;14.43;8.00;;;;;;;;;;700908;28;955;-71
2023/12/17 01:14:16;;;;;;;14.05;7.90;;;;;;;;;;701704;28;912;-72
2023/12/17 01:14:37;;;;;;;16.50;8.23;;;;;;;;;;704336;27;1257;-70
2023/12/17 01:14:57;;;;;;;15.03;7.87;;;;;;;;;;706576;28;953;-71
2023/12/17 01:15:17;;;;;;;16.63;7.93;;;;;;;;;;706921;28;1408;-72
2023/12/17 01:15:37;;;;;;;16.47;8.23;;;;;;;;;;705303;27;1669;-72
2023/12/17 01:15:58;;;;;;;16.50;8.33;;;;;;;;;;706242;28;4199;-71
2023/12/17 01:16:18;;;;;;;15.43;8.53;;;;;;;;;;707155;28;895;-70
2023/12/17 01:16:38;;;;;;;14.75;8.32;;;;;;;;;;701614;28;1520;-71
2023/12/17 01:16:58;;;;;;;17.20;8.03;;;;;;;;;;703689;28;730;-71
2023/12/17 01:17:19;;;;;;;17.37;8.43;;;;;;;;;;699749;28;1253;-71
2023/12/17 01:17:39;;;;;;;15.20;8.02;;;;;;;;;;700146;28;1767;-72
2023/12/17 01:17:59;;;;;;;14.67;7.93;;;;;;;;;;701342;28;1057;-72
2023/12/17 01:18:19;;;;;;;17.27;8.03;;;;;;;;;;701028;28;1379;-70
2023/12/17 01:18:40;;;;;;;17.15;8.05;;;;;;;;;;701524;28;4245;-69
2023/12/17 01:19:00;;;;;;;14.67;7.90;;;;;;;;;;698699;28;1206;-71
2023/12/17 01:19:20;;;;;;;15.83;8.80;;;;;;;;;;702755;28;849;-71
2023/12/17 01:19:41;;;;;;;14.23;8.20;;;;;;;;;;699318;28;2257;-72
2023/12/17 01:20:02;;;;;;;14.85;8.23;;;;;;;;;;699045;28;888;-71
2023/12/17 01:20:22;;;;;;;16.93;8.07;;;;;;;;;;696672;28;1935;-71
2023/12/17 01:20:42;;;;;;;17.97;7.80;;;;;;;;;;694798;28;1243;-71
2023/12/17 01:21:03;;;;;;;19.23;8.40;;;;;;;;;;695695;28;1611;-72
2023/12/17 01:21:23;;;;;;;17.30;8.37;;;;;;;;;;694696;28;1062;-71
2023/12/17 01:21:43;;;;;;;14.82;8.25;;;;;;;;;;694985;28;4262;-70
2023/12/17 01:22:03;;;;;;;16.37;8.90;;;;;;;;;;695818;28;1169;-68
2023/12/17 01:22:24;;;;;;;20.80;8.97;;;;;;;;;;700074;28;986;-69
2023/12/17 01:22:44;;;;;;;17.70;8.57;;;;;;;;;;701958;28;1124;-71
2023/12/17 01:23:04;;;;;;;15.07;8.43;;;;;;;;;;703546;28;1010;-71
2023/12/17 01:23:24;;;;;;;15.87;8.30;;;;;;;;;;702524;28;2569;-69
2023/12/17 01:23:45;;;;;;;15.50;7.77;;;;;;;;;;699816;28;1235;-71
2023/12/17 01:24:05;;;;;;;18.33;8.18;;;;;;;;;;704080;28;5540;-71
2023/12/17 01:24:25;;;;;;;16.23;8.00;;;;;;;;;;702482;28;1563;-72
2023/12/17 01:24:49;;;;;;;15.53;8.87;;;;;;;;;;700683;28;4402;-71
2023/12/17 01:25:09;;;;;;;18.00;8.73;;;;;;;;;;700808;28;895;-72
2023/12/17 01:25:29;;;;;;;15.57;8.00;;;;;;;;;;699705;28;1003;-72
2023/12/17 01:25:50;;;;;;;14.40;7.97;;;;;;;;;;703849;28;808;-72
2023/12/17 01:26:16;;;;;;;16.10;8.00;;;;;;;;;;701460;28;962;-73
2023/12/17 01:26:37;;;;;;;16.73;8.40;;;;;;;;;;701409;28;2270;-71
2023/12/17 01:26:58;;;;;;;17.40;8.30;;;;;;;;;;704032;28;955;-71
2023/12/17 01:27:18;;;;;;;15.80;8.20;;;;;;;;;;700809;28;1401;-73
2023/12/17 01:27:38;;;;;;;15.07;8.20;;;;;;;;;;699878;28;1500;-72
2023/12/17 01:27:59;;;;;;;16.73;8.50;;;;;;;;;;701848;28;4356;-70
2023/12/17 01:28:19;;;;;;;17.13;8.67;;;;;;;;;;703889;28;1164;-71
2023/12/17 01:28:39;;;;;;;16.25;8.02;;;;;;;;;;699691;28;2040;-72
2023/12/17 01:28:59;;;;;;;17.57;8.17;;;;;;;;;;703886;28;974;-71
2023/12/17 01:29:20;;;;;;;17.17;8.20;;;;;;;;;;700923;28;1104;-71
2023/12/17 01:29:40;;;;;;;16.13;7.88;;;;;;;;;;700146;28;1746;-72
2023/12/17 01:30:00;;;;;;;17.87;8.27;;;;;;;;;;700663;28;860;-72
2023/12/17 01:30:20;;;;;;;20.97;9.73;;;;;;;;;;704293;28;842;-71
2023/12/17 01:30:41;;;;;;;18.37;8.80;;;;;;;;;;701419;28;4249;-72
2023/12/17 01:31:01;;;;;;;16.17;8.20;;;;;;;;;;704038;28;1988;-71
2023/12/17 01:31:22;;;;;;;16.58;7.88;;;;;;;;;;706498;28;884;-71
2023/12/17 01:31:42;;;;;;;16.67;8.40;;;;;;;;;;705678;27;2266;-72
2023/12/17 01:32:02;;;;;;;14.53;8.53;;;;;;;;;;704167;28;879;-71
2023/12/17 01:32:23;;;;;;;14.63;8.25;;;;;;;;;;703703;28;989;-70
2023/12/17 01:32:43;;;;;;;15.97;8.47;;;;;;;;;;700288;28;785;-71
2023/12/17 01:33:03;;;;;;;14.53;8.57;;;;;;;;;;701233;28;884;-73
2023/12/17 01:33:23;;;;;;;16.55;8.60;;;;;;;;;;700052;28;1737;-71
2023/12/17 01:33:44;;;;;;;18.17;9.40;;;;;;;;;;698091;28;4253;-72
2023/12/17 01:34:06;;;;;;;17.90;8.83;;;;;;;;;;697814;28;1272;-70
2023/12/17 01:34:27;;;;;;;18.25;9.38;;;;;;;;;;697207;28;2300;-71
2023/12/17 01:34:47;;;;;;;18.60;8.97;;;;;;;;;;700089;28;932;-71
2023/12/17 01:35:08;;;;;;;21.37;9.40;;;;;;;;;;701118;28;888;-72
2023/12/17 01:35:30;;;;;;;18.45;9.23;;;;;;;;;;699494;28;1425;-71
2023/12/17 01:35:50;;;;;;;14.63;8.45;;;;;;;;;;704642;28;1346;-71
2023/12/17 01:36:11;;;;;;;16.43;9.10;;;;;;;;;;706930;28;915;-71
2023/12/17 01:36:31;;;;;;;19.20;9.18;;;;;;;;;;705126;27;1774;-73
2023/12/17 01:36:51;;;;;;;21.43;9.97;;;;;;;;;;706376;28;4227;-72
2023/12/17 01:37:11;;;;;;;19.97;10.40;;;;;;;;;;706951;28;963;-71
2023/12/17 01:37:31;;;;;;;17.90;9.07;;;;;;;;;;704707;27;2156;-72
2023/12/17 01:37:52;;;;;;;19.87;9.40;;;;;;;;;;707422;28;737;-73
2023/12/17 01:38:12;;;;;;;16.80;9.40;;;;;;;;;;703585;28;915;-71
2023/12/17 01:38:32;;;;;;;16.07;8.80;;;;;;;;;;702491;28;2041;-72
2023/12/17 01:38:52;;;;;;;15.70;8.70;;;;;;;;;;697019;28;1328;-71
2023/12/17 01:39:13;;;;;;;15.83;8.63;;;;;;;;;;695027;28;1480;-71
2023/12/17 01:39:33;;;;;;;17.90;8.97;;;;;;;;;;693141;28;1730;-72
2023/12/17 01:39:53;;;;;;;18.50;9.40;;;;;;;;;;694496;28;4432;-73
2023/12/17 01:40:14;;;;;;;17.23;9.50;;;;;;;;;;693582;28;1027;-72
2023/12/17 01:40:34;;;;;;;17.23;9.23;;;;;;;;;;692826;28;2520;-73
2023/12/17 01:40:54;;;;;;;17.85;9.52;;;;;;;;;;697367;28;1061;-72
2023/12/17 01:41:14;;;;;;;18.73;9.60;;;;;;;;;;698763;28;1360;-72
2023/12/17 01:41:34;;;;;;;17.30;8.87;;;;;;;;;;699677;28;1763;-72
2023/12/17 01:41:55;;;;;;;20.27;9.57;;;;;;;;;;707000;28;963;-72
2023/12/17 01:42:15;;;;;;;20.13;9.65;;;;;;;;;;707005;28;982;-72
2023/12/17 01:42:35;;;;;;;18.53;9.33;;;;;;;;;;705246;27;1795;-72
2023/12/17 01:42:56;;;;;;;20.25;9.55;;;;;;;;;;706343;28;4383;-72
2023/12/17 01:43:16;;;;;;;19.53;9.23;;;;;;;;;;701111;28;1222;-71
2023/12/17 01:43:36;;;;;;;19.47;9.20;;;;;;;;;;700571;28;1856;-73
2023/12/17 01:43:57;;;;;;;19.48;9.13;;;;;;;;;;700951;28;914;-71
2023/12/17 01:44:17;;;;;;;20.73;9.37;;;;;;;;;;701488;28;986;-71
2023/12/17 01:44:37;;;;;;;19.40;9.67;;;;;;;;;;697224;28;1900;-71
2023/12/17 01:44:57;;;;;;;18.33;9.50;;;;;;;;;;698526;28;1116;-72
2023/12/17 01:45:18;;;;;;;16.07;9.13;;;;;;;;;;698135;28;927;-72
2023/12/17 01:45:38;;;;;;;16.63;9.07;;;;;;;;;;694984;28;914;-73
2023/12/17 01:45:59;;;;;;;17.02;9.25;;;;;;;;;;693696;28;4585;-73
2023/12/17 01:46:19;;;;;;;20.50;9.43;;;;;;;;;;696346;28;797;-71
2023/12/17 01:46:40;;;;;;;19.80;9.30;;;;;;;;;;699951;28;2042;-72
2023/12/17 01:47:00;;;;;;;19.30;9.40;;;;;;;;;;702664;28;1374;-71
2023/12/17 01:47:21;;;;;;;16.48;8.68;;;;;;;;;;701178;28;1077;-72
2023/12/17 01:47:42;;;;;;;16.30;8.63;;;;;;;;;;700082;28;978;-73
2023/12/17 01:48:02;;;;;;;16.20;8.82;;;;;;;;;;703367;28;1338;-72
2023/12/17 01:48:22;;;;;;;15.73;9.00;;;;;;;;;;704150;28;872;-74
2023/12/17 01:48:43;;;;;;;18.03;8.73;;;;;;;;;;696494;28;4287;-71
2023/12/17 01:49:04;;;;;;;19.20;8.67;;;;;;;;;;698887;28;1468;-72
2023/12/17 01:49:24;;;;;;;18.63;9.02;;;;;;;;;;700571;28;954;-72
2023/12/17 01:49:44;;;;;;;19.80;9.33;;;;;;;;;;697888;28;966;-72
2023/12/17 01:50:05;;;;;;;17.20;9.03;;;;;;;;;;698352;28;888;-72
2023/12/17 01:50:26;;;;;;;18.27;9.40;;;;;;;;;;698615;28;2246;-71
2023/12/17 01:50:47;;;;;;;15.93;8.93;;;;;;;;;;700594;28;1006;-73
2023/12/17 01:51:08;;;;;;;16.80;8.87;;;;;;;;;;699472;28;1890;-68
2023/12/17 01:51:28;;;;;;;17.40;8.88;;;;;;;;;;700202;28;1502;-73
2023/12/17 01:51:49;;;;;;;18.38;8.57;;;;;;;;;;700443;28;4380;-73
2023/12/17 01:52:09;;;;;;;17.27;8.50;;;;;;;;;;700803;28;1204;-71
2023/12/17 01:52:30;;;;;;;15.33;8.60;;;;;;;;;;699400;28;1462;-72
2023/12/17 01:52:50;;;;;;;17.47;9.03;;;;;;;;;;699374;28;916;-74
2023/12/17 01:53:11;;;;;;;19.38;8.82;;;;;;;;;;701278;28;1418;-73
2023/12/17 01:53:31;;;;;;;17.58;8.88;;;;;;;;;;697614;28;1155;-72
2023/12/17 01:53:52;;;;;;;18.20;8.43;;;;;;;;;;697892;28;3824;-74
2023/12/17 01:54:12;;;;;;;15.45;8.63;;;;;;;;;;700995;28;883;-73
2023/12/17 01:54:33;;;;;;;16.17;8.50;;;;;;;;;;697586;28;1702;-73
2023/12/17 01:54:53;;;;;;;14.25;7.97;;;;;;;;;;694429;28;4234;-72
2023/12/17 01:55:14;;;;;;;16.73;8.30;;;;;;;;;;695699;28;1264;-73
2023/12/17 01:55:34;;;;;;;16.95;8.07;;;;;;;;;;697696;28;2268;-72
2023/12/17 01:55:55;;;;;;;16.67;8.03;;;;;;;;;;698259;28;940;-71
2023/12/17 01:56:15;;;;;;;17.00;8.35;;;;;;;;;;698272;28;779;-72
2023/12/17 01:56:36;;;;;;;15.60;7.90;;;;;;;;;;699980;28;2221;-73
2023/12/17 01:56:56;;;;;;;14.27;8.17;;;;;;;;;;698468;28;1132;-72
2023/12/17 01:57:16;;;;;;;17.03;8.73;;;;;;;;;;700795;28;1426;-74
2023/12/17 01:57:37;;;;;;;17.65;8.27;;;;;;;;;;697333;28;953;-72
2023/12/17 01:57:57;;;;;;;16.43;8.53;;;;;;;;;;696156;28;4222;-72
2023/12/17 01:58:17;;;;;;;17.85;8.65;;;;;;;;;;696328;28;1182;-72
2023/12/17 01:58:38;;;;;;;16.60;8.07;;;;;;;;;;694634;28;1909;-72
2023/12/17 01:58:58;;;;;;;15.30;7.93;;;;;;;;;;698555;28;3226;-71
2023/12/17 01:59:19;;;;;;;14.83;7.50;;;;;;;;;;698853;28;935;-72
2023/12/17 01:59:40;;;;;;;15.13;7.63;;;;;;;;;;699550;28;1800;-73
2023/12/17 02:00:01;;;;;;;16.92;8.10;;;;;;;;;;699230;28;1483;-70
2023/12/17 02:00:25;;;;;;;18.65;8.70;;;;;;;;;;698004;28;1768;-71
2023/12/17 02:00:47;;;;;;;16.80;8.17;;;;;;;;;;698322;28;4494;-72
2023/12/17 02:01:07;;;;;;;16.13;7.78;;;;;;;;;;696266;28;1405;-73
2023/12/17 02:01:28;;;;;;;15.87;7.90;;;;;;;;;;689562;28;1987;-72
2023/12/17 02:01:49;;;;;;;15.95;7.95;;;;;;;;;;696101;28;1117;-72
2023/12/17 02:02:10;;;;;;;19.58;8.20;;;;;;;;;;696204;28;864;-71
2023/12/17 02:02:30;;;;;;;17.60;7.82;;;;;;;;;;694568;28;1436;-72
2023/12/17 02:02:51;;;;;;;14.38;7.15;;;;;;;;;;696702;28;872;-72
2023/12/17 02:03:11;;;;;;;13.40;7.57;;;;;;;;;;698533;28;927;-72
2023/12/17 02:03:31;;;;;;;14.10;7.80;;;;;;;;;;698028;28;1507;-72
2023/12/17 02:03:52;;;;;;;16.63;7.65;;;;;;;;;;704439;28;4210;-72
2023/12/17 02:04:12;;;;;;;17.27;7.57;;;;;;;;;;707597;27;1139;-72
2023/12/17 02:04:32;;;;;;;13.48;7.40;;;;;;;;;;701305;28;1905;-72
2023/12/17 02:04:55;;;;;;;13.40;7.20;;;;;;;;;;702720;28;784;-70
2023/12/17 02:05:15;;;;;;;16.00;8.00;;;;;;;;;;702997;28;954;-73